Аэропорт: Запорожье. Запорожье

ICAO: UKDE

METAR:
2019-07-23 18:30:00
UKDE 231830Z 29002MPS CAVOK 20/19 Q1011 R02R/210570 NOSIG
METAR:
2019-07-23 17:19:00
TAF COR UKDE 231719Z 2318/2403 36003MPS 9999 SCT030 PROB40 TEMPO 2318/2322 VRB10G15MPS 2100 -TSRAGR SQ BKN020CB TEMPO 2322/2403 3100 BR SCT011